Time;durP1;ratioP1;P1;durP2;ratioP2;P2;SDS_P1;SDS_P2;PMS_P1;PMS_P2;Temp;Humidity;BMP_temperature;BMP_pressure;BME280_temperature;BME280_humidity;BME280_pressure;Samples;Min_cycle;Max_cycle;Signal;HPM_P1;HPM_P2
2021/05/26 00:00:07;;;;;;;4.17;1.60;;;;;;;13.22;44.40;98001.72;8354685;28;20197;-81
2021/05/26 00:04:12;;;;;;;4.43;1.50;;;;;;;13.24;44.23;98004.25;8342981;28;20318;-80
2021/05/26 00:08:15;;;;;;;4.97;1.97;;;;;;;13.14;44.21;97997.88;8353820;28;20267;-81
2021/05/26 00:12:17;;;;;;;6.50;1.90;;;;;;;13.06;44.40;98001.72;8353341;28;20229;-80
2021/05/26 00:16:22;;;;;;;6.83;1.93;;;;;;;13.09;44.05;98000.72;8353009;28;20200;-79
2021/05/26 00:20:25;;;;;;;3.47;1.50;;;;;;;13.14;44.23;97997.88;8353418;28;20200;-79
2021/05/26 00:24:27;;;;;;;5.23;1.57;;;;;;;12.99;45.90;98007.34;8353366;28;20223;-80
2021/05/26 00:28:29;;;;;;;5.37;1.80;;;;;;;12.88;47.92;98008.72;8353134;28;20526;-80
2021/05/26 00:32:33;;;;;;;5.90;1.43;;;;;;;13.03;47.93;98014.03;8352974;28;20235;-80
2021/05/26 00:36:36;;;;;;;5.33;1.67;;;;;;;13.06;48.59;98013.84;8353356;28;20473;-79
2021/05/26 00:40:38;;;;;;;6.63;1.77;;;;;;;13.13;48.04;98002.22;8352629;28;20201;-79
2021/05/26 00:44:40;;;;;;;4.30;1.70;;;;;;;13.08;47.81;97988.66;8352439;28;20201;-80
2021/05/26 00:48:44;;;;;;;8.93;1.97;;;;;;;13.04;48.01;97992.31;8352712;28;20207;-80
2021/05/26 00:52:46;;;;;;;3.80;1.70;;;;;;;13.13;47.65;97977.97;8351995;28;20228;-80
2021/05/26 00:56:49;;;;;;;4.40;1.47;;;;;;;13.24;48.19;97994.66;8351917;28;20201;-81
2021/05/26 01:00:52;;;;;;;4.77;1.40;;;;;;;13.19;48.65;97994.06;8351734;28;20228;-82
2021/05/26 01:04:55;;;;;;;4.00;1.60;;;;;;;13.09;49.03;97985.94;8351641;28;20211;-81
2021/05/26 01:08:57;;;;;;;4.47;1.60;;;;;;;13.03;50.15;97973.28;8351564;28;20248;-82
2021/05/26 01:13:00;;;;;;;4.73;1.60;;;;;;;13.00;48.33;97976.03;8350730;28;20269;-81
2021/05/26 01:17:03;;;;;;;3.67;1.70;;;;;;;13.00;48.27;97963.03;8351259;28;20209;-82
2021/05/26 01:21:08;;;;;;;8.70;1.80;;;;;;;13.05;48.67;97961.03;8351127;28;20399;-82
2021/05/26 01:25:12;;;;;;;3.17;1.60;;;;;;;12.87;48.92;97962.88;8350916;28;20200;-82
2021/05/26 01:29:14;;;;;;;5.07;1.60;;;;;;;12.88;48.41;97956.75;8350903;28;20215;-81
2021/05/26 01:33:17;;;;;;;3.73;1.67;;;;;;;12.91;48.96;97951.41;8350542;28;20236;-82
2021/05/26 01:37:20;;;;;;;4.67;1.83;;;;;;;12.99;48.26;97950.97;8350705;28;20200;-82
2021/05/26 01:41:23;;;;;;;4.87;1.67;;;;;;;12.66;48.61;97944.09;8350163;28;20208;-82
2021/05/26 01:45:25;;;;;;;6.77;1.90;;;;;;;12.79;48.60;97943.41;8350777;28;20224;-80
2021/05/26 01:49:28;;;;;;;4.07;1.83;;;;;;;12.71;49.09;97928.22;8350619;28;20201;-81
2021/05/26 01:53:30;;;;;;;4.70;1.60;;;;;;;12.66;48.59;97938.03;8349972;28;20233;-81
2021/05/26 01:57:33;;;;;;;4.07;1.60;;;;;;;12.83;48.95;97937.13;8350121;28;20200;-82
2021/05/26 02:01:36;;;;;;;4.03;1.67;;;;;;;12.79;47.58;97927.81;8350028;28;20327;-81
2021/05/26 02:05:39;;;;;;;3.73;1.70;;;;;;;12.83;47.46;97926.72;8349581;28;20526;-82
2021/05/26 02:09:41;;;;;;;4.77;1.60;;;;;;;12.69;47.22;97917.91;8349644;28;20221;-82
2021/05/26 02:13:44;;;;;;;3.83;1.63;;;;;;;12.83;46.85;97919.78;8349426;28;20228;-81
2021/05/26 02:17:47;;;;;;;3.67;1.60;;;;;;;12.84;47.00;97916.25;8349716;28;20200;-81
2021/05/26 02:21:50;;;;;;;6.37;1.87;;;;;;;12.85;46.71;97917.94;8349407;28;20546;-81
2021/05/26 02:25:53;;;;;;;5.67;1.80;;;;;;;12.67;47.35;97900.75;8348887;28;20208;-81
2021/05/26 02:29:56;;;;;;;5.87;1.50;;;;;;;12.73;46.92;97895.22;8349029;28;20200;-82
2021/05/26 02:33:58;;;;;;;4.17;1.80;;;;;;;12.68;47.04;97885.06;8349326;28;20239;-82
2021/05/26 02:38:01;;;;;;;5.57;1.60;;;;;;;12.61;47.05;97883.72;8348579;28;20373;-81
2021/05/26 02:42:04;;;;;;;3.80;1.47;;;;;;;12.63;46.88;97881.88;8349845;28;20486;-81
2021/05/26 02:46:07;;;;;;;4.77;1.60;;;;;;;12.62;46.81;97880.22;8349011;28;20207;-81
2021/05/26 02:50:16;;;;;;;3.80;1.50;;;;;;;12.64;46.85;97883.56;8348686;28;20223;-81
2021/05/26 02:54:19;;;;;;;4.00;1.60;;;;;;;12.73;47.16;97878.78;8348670;28;20228;-81
2021/05/26 02:58:21;;;;;;;4.13;1.30;;;;;;;12.51;47.55;97872.16;8348578;28;20201;-81
2021/05/26 03:02:24;;;;;;;4.20;1.53;;;;;;;12.62;47.33;97875.03;8348410;28;20554;-81
2021/05/26 03:06:27;;;;;;;3.43;1.40;;;;;;;12.52;47.10;97874.66;8348430;28;20226;-81
2021/05/26 03:10:29;;;;;;;5.33;1.70;;;;;;;12.63;47.41;97868.06;8348094;28;20224;-80
2021/05/26 03:14:32;;;;;;;4.67;1.70;;;;;;;12.46;47.61;97871.56;8348357;28;20251;-81
2021/05/26 03:18:35;;;;;;;3.90;1.50;;;;;;;12.57;47.95;97860.59;8348345;28;20201;-81
2021/05/26 03:22:38;;;;;;;3.97;1.80;;;;;;;12.57;47.74;97868.41;8348345;28;20463;-79
2021/05/26 03:26:41;;;;;;;5.87;1.63;;;;;;;12.45;48.04;97867.28;8348300;28;20223;-80
2021/05/26 03:30:43;;;;;;;5.23;1.60;;;;;;;12.62;48.88;97872.44;8348279;28;20200;-82
2021/05/26 03:34:46;;;;;;;6.10;1.60;;;;;;;12.71;49.84;97874.50;8348064;28;20251;-81
2021/05/26 03:38:49;;;;;;;3.53;1.60;;;;;;;12.65;49.79;97874.84;8347945;28;20200;-82
2021/05/26 03:42:51;;;;;;;4.13;1.53;;;;;;;12.70;50.19;97872.84;8347763;28;20208;-79
2021/05/26 03:46:54;;;;;;;4.90;1.43;;;;;;;12.64;50.29;97862.78;8347805;28;20200;-79
2021/05/26 03:50:57;;;;;;;5.33;1.40;;;;;;;12.68;50.59;97858.25;8354088;28;20271;-79
2021/05/26 03:54:59;;;;;;;3.47;1.60;;;;;;;12.61;50.47;97851.72;8353810;28;20236;-78
2021/05/26 03:59:02;;;;;;;6.27;1.63;;;;;;;12.69;51.25;97858.16;8353845;28;20518;-79
2021/05/26 04:03:04;;;;;;;3.20;1.30;;;;;;;12.73;51.67;97845.00;8353479;28;20240;-78
2021/05/26 04:07:08;;;;;;;3.67;1.40;;;;;;;12.78;51.59;97840.41;8353573;28;20207;-79
2021/05/26 04:11:11;;;;;;;5.30;1.60;;;;;;;12.82;51.81;97834.94;8353078;28;20227;-79
2021/05/26 04:15:14;;;;;;;2.80;1.40;;;;;;;12.89;51.94;97838.88;8353142;28;20295;-79
2021/05/26 04:19:17;;;;;;;3.67;1.50;;;;;;;12.84;52.44;97846.09;8353182;28;20267;-79
2021/05/26 04:23:20;;;;;;;3.47;1.60;;;;;;;12.87;52.59;97838.13;8353172;28;20227;-79
2021/05/26 04:27:23;;;;;;;5.47;1.80;;;;;;;12.85;53.00;97842.59;8352816;28;20204;-80
2021/05/26 04:31:25;;;;;;;4.27;1.70;;;;;;;12.83;53.04;97835.78;8352912;28;20207;-80
2021/05/26 04:35:27;;;;;;;3.13;1.30;;;;;;;12.88;52.78;97831.16;8352746;28;20200;-79
2021/05/26 04:39:31;;;;;;;6.07;1.23;;;;;;;12.77;53.62;97829.16;8352650;28;20200;-82
2021/05/26 04:43:33;;;;;;;7.60;1.80;;;;;;;12.94;53.65;97843.81;8352594;28;20208;-82
2021/05/26 04:47:36;;;;;;;3.57;1.60;;;;;;;13.02;53.53;97838.19;8352814;28;20224;-81
2021/05/26 04:51:38;;;;;;;3.20;1.60;;;;;;;13.06;53.60;97827.53;8352869;28;20200;-81
2021/05/26 04:55:41;;;;;;;2.67;1.40;;;;;;;13.08;54.22;97822.25;8352641;28;20204;-81
2021/05/26 04:59:44;;;;;;;5.50;1.70;;;;;;;13.11;53.93;97822.91;8350888;28;20200;-82
2021/05/26 05:03:46;;;;;;;3.50;1.30;;;;;;;13.03;53.86;97845.06;8351569;28;20430;-82
2021/05/26 05:07:48;;;;;;;3.10;1.53;;;;;;;13.11;54.05;97841.09;8351586;28;20204;-82
2021/05/26 05:11:52;;;;;;;2.43;1.50;;;;;;;13.19;54.21;97838.06;8351417;28;20227;-82
2021/05/26 05:15:54;;;;;;;3.73;1.53;;;;;;;13.13;54.46;97842.78;8351535;28;20558;-81
2021/05/26 05:19:57;;;;;;;2.90;1.30;;;;;;;13.05;55.22;97841.44;8351715;28;20207;-81
2021/05/26 05:23:59;;;;;;;3.80;1.50;;;;;;;12.95;55.19;97839.47;8352427;28;20209;-80
2021/05/26 05:28:04;;;;;;;5.80;1.43;;;;;;;13.12;55.01;97828.97;8351012;28;20196;-80
2021/05/26 05:32:07;;;;;;;4.33;1.40;;;;;;;13.07;54.97;97821.41;8351159;28;20227;-81
2021/05/26 05:36:10;;;;;;;4.83;1.63;;;;;;;13.28;54.38;97824.53;8350745;28;20207;-81
2021/05/26 05:40:13;;;;;;;6.70;1.50;;;;;;;13.37;54.07;97827.59;8350457;28;20206;-81
2021/05/26 05:44:16;;;;;;;4.10;2.00;;;;;;;13.50;54.51;97831.16;8350597;28;20204;-81
2021/05/26 05:48:19;;;;;;;4.27;1.20;;;;;;;13.53;54.17;97822.31;8350408;28;20200;-81
2021/05/26 05:52:21;;;;;;;3.93;1.50;;;;;;;13.38;53.83;97808.44;8350143;28;20230;-80
2021/05/26 05:56:23;;;;;;;3.10;1.30;;;;;;;13.48;54.24;97807.81;8350103;28;20392;-80
2021/05/26 06:00:27;;;;;;;3.40;1.20;;;;;;;13.35;54.08;97798.22;8349611;28;20207;-80
2021/05/26 06:04:29;;;;;;;4.90;1.50;;;;;;;13.42;53.69;97807.31;8350001;28;20216;-80
2021/05/26 06:08:31;;;;;;;4.80;1.30;;;;;;;13.54;53.53;97811.00;8349691;28;20207;-81
2021/05/26 06:12:34;;;;;;;2.40;1.03;;;;;;;13.60;53.29;97808.84;8349485;28;20231;-81
2021/05/26 06:16:38;;;;;;;4.77;1.30;;;;;;;13.48;53.27;97807.81;8349457;28;20282;-81
2021/05/26 06:20:41;;;;;;;4.20;1.40;;;;;;;13.59;53.18;97806.34;8349443;28;20223;-81
2021/05/26 06:24:43;;;;;;;4.50;1.53;;;;;;;13.43;53.41;97806.41;8349314;28;20204;-80
2021/05/26 06:28:46;;;;;;;4.10;1.50;;;;;;;13.57;53.41;97800.38;8349067;28;20219;-81
2021/05/26 06:32:49;;;;;;;3.83;1.23;;;;;;;13.60;53.85;97802.81;8349145;28;20523;-81
2021/05/26 06:36:52;;;;;;;3.63;1.40;;;;;;;13.68;53.65;97798.81;8348154;28;20204;-82
2021/05/26 06:40:54;;;;;;;3.77;1.33;;;;;;;13.65;52.56;97792.97;8349218;28;20207;-83
2021/05/26 06:44:57;;;;;;;4.83;1.20;;;;;;;13.67;53.50;97794.56;8348715;28;20241;-82
2021/05/26 06:49:00;;;;;;;4.40;1.23;;;;;;;13.81;54.13;97800.69;8349013;28;20200;-81
2021/05/26 06:53:03;;;;;;;4.50;1.50;;;;;;;13.79;53.86;97797.38;8349039;28;20295;-82
2021/05/26 06:57:06;;;;;;;4.47;1.43;;;;;;;13.78;54.08;97793.06;8348687;28;20204;-82
2021/05/26 07:01:08;;;;;;;2.97;1.20;;;;;;;13.77;55.24;97799.22;8348455;28;20232;-81
2021/05/26 07:05:12;;;;;;;3.90;1.60;;;;;;;13.65;54.51;97799.03;8348432;28;20211;-82
2021/05/26 07:09:14;;;;;;;4.00;1.50;;;;;;;13.53;55.32;97802.34;8348059;28;20216;-82
2021/05/26 07:13:17;;;;;;;2.73;1.20;;;;;;;13.40;55.95;97801.38;8348793;28;20231;-81
2021/05/26 07:17:19;;;;;;;4.10;1.20;;;;;;;13.47;56.53;97795.72;8348370;28;20210;-81
2021/05/26 07:21:22;;;;;;;3.77;1.33;;;;;;;13.17;58.10;97792.28;8348477;28;20376;-82
2021/05/26 07:25:25;;;;;;;2.90;1.30;;;;;;;13.50;57.38;97794.72;8353856;28;20211;-81
2021/05/26 07:29:27;;;;;;;3.40;1.43;;;;;;;13.16;58.80;97782.81;8354726;28;20200;-81
2021/05/26 07:33:30;;;;;;;5.97;1.60;;;;;;;13.46;58.26;97794.06;8354770;28;20240;-82
2021/05/26 07:37:33;;;;;;;4.03;1.37;;;;;;;13.52;58.45;97795.47;8354414;28;20204;-82
2021/05/26 07:41:36;;;;;;;6.30;1.50;;;;;;;13.26;59.31;97791.75;8354136;28;20201;-82
2021/05/26 07:45:38;;;;;;;4.70;1.07;;;;;;;14.13;62.87;97795.31;8353537;28;20200;-78
2021/05/26 07:49:40;;;;;;;8.13;1.50;;;;;;;14.66;58.84;97797.19;8353323;28;20275;-77
2021/05/26 07:53:44;;;;;;;3.77;1.33;;;;;;;14.84;56.93;97789.13;8354239;28;20514;-78
2021/05/26 07:57:46;;;;;;;4.53;1.23;;;;;;;14.68;56.56;97784.06;8352624;28;20200;-79
2021/05/26 08:01:48;;;;;;;3.50;1.30;;;;;;;14.57;56.87;97779.53;8334752;28;20235;-78
2021/05/26 08:05:51;;;;;;;5.77;1.53;;;;;;;14.38;57.57;97777.22;8354696;28;20364;-79
2021/05/26 08:09:54;;;;;;;2.73;1.30;;;;;;;14.48;57.78;97770.47;8344967;28;20216;-81
2021/05/26 08:13:57;;;;;;;3.43;1.27;;;;;;;13.74;58.68;97760.34;8337351;28;20226;-81
2021/05/26 08:18:00;;;;;;;5.13;1.40;;;;;;;14.44;58.28;97760.38;8338276;28;20192;-80
2021/05/26 08:22:02;;;;;;;5.30;1.50;;;;;;;14.03;58.47;97772.44;8343984;28;20199;-81
2021/05/26 08:26:07;;;;;;;4.97;1.57;;;;;;;14.74;56.95;97764.59;8335818;28;20208;-80
2021/05/26 08:30:10;;;;;;;5.93;1.30;;;;;;;14.41;56.53;97755.34;8339568;28;20193;-81
2021/05/26 08:34:13;;;;;;;4.57;1.00;;;;;;;14.09;55.91;97755.59;8333945;28;20225;-83
2021/05/26 08:38:15;;;;;;;3.93;1.23;;;;;;;14.09;57.36;97750.41;8338635;28;20202;-82
2021/05/26 08:42:19;;;;;;;2.60;1.13;;;;;;;14.07;57.45;97752.25;8347076;28;20201;-82
2021/05/26 08:46:22;;;;;;;1.73;1.00;;;;;;;13.97;56.91;97751.97;8353743;28;20200;-81
2021/05/26 08:50:25;;;;;;;4.07;1.00;;;;;;;13.94;56.82;97743.53;8353255;28;20200;-81
2021/05/26 08:54:27;;;;;;;1.73;0.87;;;;;;;13.79;57.86;97750.50;8357908;28;20519;-81
2021/05/26 08:58:37;;;;;;;3.10;1.03;;;;;;;13.87;56.83;97756.06;8353945;28;20510;-82
2021/05/26 09:02:39;;;;;;;2.50;1.00;;;;;;;13.57;57.16;97749.19;8341032;28;20236;-82
2021/05/26 09:06:43;;;;;;;1.73;0.97;;;;;;;13.40;56.44;97751.97;8354859;28;20204;-82
2021/05/26 09:10:50;;;;;;;1.67;0.80;;;;;;;13.34;58.17;97752.31;8354469;28;20224;-81
2021/05/26 09:14:54;;;;;;;2.47;0.90;;;;;;;13.73;56.74;97748.25;8340891;28;20231;-81
2021/05/26 09:18:57;;;;;;;2.20;0.90;;;;;;;13.87;57.26;97746.50;8337828;28;20199;-82
2021/05/26 09:23:03;;;;;;;2.20;0.90;;;;;;;13.74;56.68;97744.75;8356748;28;20210;-82
2021/05/26 09:27:07;;;;;;;1.87;0.90;;;;;;;13.69;56.56;97735.44;8333867;28;20201;-82
2021/05/26 09:31:13;;;;;;;3.17;1.00;;;;;;;13.75;57.74;97729.03;8344790;28;20221;-80
2021/05/26 09:35:16;;;;;;;1.50;0.80;;;;;;;13.83;57.55;97742.41;8340946;28;20231;-81
2021/05/26 09:39:19;;;;;;;1.47;0.87;;;;;;;13.76;56.39;97738.50;8335994;28;20192;-81
2021/05/26 09:43:38;;;;;;;3.47;0.70;;;;;;;13.71;57.52;97731.91;8337643;28;20206;-81
2021/05/26 09:47:43;;;;;;;2.57;0.83;;;;;;;13.58;58.27;97735.25;8333114;28;20193;-81
2021/05/26 09:51:47;;;;;;;1.67;0.90;;;;;;;13.62;57.99;97730.72;8346968;28;20204;-81
2021/05/26 09:55:50;;;;;;;2.20;0.93;;;;;;;13.76;58.31;97729.88;8335316;28;20229;-82
2021/05/26 09:59:53;;;;;;;1.87;1.13;;;;;;;13.74;59.21;97724.75;8332573;28;20358;-83
2021/05/26 10:03:56;;;;;;;1.97;0.90;;;;;;;13.84;58.77;97733.69;8337797;28;20519;-81
2021/05/26 10:07:59;;;;;;;2.53;0.90;;;;;;;13.71;58.99;97730.16;8333332;28;20193;-81
2021/05/26 10:12:03;;;;;;;1.53;1.00;;;;;;;13.84;58.64;97738.88;8341921;28;20413;-81
2021/05/26 10:16:06;;;;;;;1.50;0.90;;;;;;;14.01;58.52;97734.41;8339102;28;20227;-82
2021/05/26 10:20:12;;;;;;;4.33;0.90;;;;;;;14.12;58.17;97721.53;8342462;28;20369;-81
2021/05/26 10:24:17;;;;;;;4.37;0.70;;;;;;;13.85;55.94;97722.31;8341755;28;20197;-81
2021/05/26 10:28:27;;;;;;;1.27;0.80;;;;;;;14.06;56.98;97727.16;8358464;28;20199;-82
2021/05/26 10:32:32;;;;;;;2.17;0.70;;;;;;;13.89;56.71;97717.78;8358827;28;20204;-82
2021/05/26 10:36:51;;;;;;;1.70;0.90;;;;;;;14.13;58.00;97717.19;8328009;28;20232;-81
2021/05/26 10:40:56;;;;;;;2.43;0.80;;;;;;;14.31;57.31;97713.41;8322847;28;20201;-82
2021/05/26 10:45:01;;;;;;;1.90;0.80;;;;;;;14.35;57.95;97714.06;8339361;28;20206;-81
2021/05/26 10:49:13;;;;;;;1.20;0.77;;;;;;;14.43;57.36;97710.03;8369386;28;20207;-83
2021/05/26 10:53:17;;;;;;;1.50;0.80;;;;;;;14.45;55.90;97709.94;8382198;28;20289;-82
2021/05/26 10:57:20;;;;;;;2.00;0.80;;;;;;;14.65;56.00;97716.50;8381744;28;20208;-82
2021/05/26 11:01:23;;;;;;;1.83;0.83;;;;;;;14.82;55.80;97716.22;8383029;28;20242;-82
2021/05/26 11:05:36;;;;;;;1.57;0.90;;;;;;;14.78;56.36;97700.91;8382035;28;20203;-82
2021/05/26 11:09:55;;;;;;;2.03;0.80;;;;;;;14.32;56.98;97703.81;8326087;28;20380;-82
2021/05/26 11:14:00;;;;;;;2.90;0.80;;;;;;;14.85;56.39;97696.97;8316108;28;20228;-82
2021/05/26 11:18:09;;;;;;;1.90;0.90;;;;;;;14.94;56.52;97693.72;8316852;28;20486;-84
2021/05/26 11:22:13;;;;;;;1.70;0.80;;;;;;;14.94;54.82;97700.72;8321461;28;20202;-85
2021/05/26 11:26:16;;;;;;;0.40;0.40;;;;;;;14.68;51.93;97697.19;8341281;28;20207;-83
2021/05/26 11:30:25;;;;;;;0.90;0.43;;;;;;;14.90;52.88;97684.44;8342864;28;20309;-84
2021/05/26 11:34:27;;;;;;;0.83;0.40;;;;;;;14.81;52.54;97692.84;8342688;28;20260;-83
2021/05/26 11:38:30;;;;;;;0.60;0.40;;;;;;;14.87;53.09;97695.09;8353159;28;20549;-82
2021/05/26 11:42:34;;;;;;;1.07;0.50;;;;;;;14.68;53.52;97694.59;8352513;28;20211;-83
2021/05/26 11:46:37;;;;;;;1.23;0.60;;;;;;;14.92;54.25;97702.59;8351689;28;20227;-84
2021/05/26 11:50:40;;;;;;;1.00;0.50;;;;;;;14.88;52.81;97691.53;8349596;28;20197;-83
2021/05/26 11:54:52;;;;;;;4.60;0.70;;;;;;;14.85;53.53;97681.31;8351218;28;20228;-80
2021/05/26 11:58:56;;;;;;;2.13;0.87;;;;;;;14.83;53.26;97691.84;8351784;28;20397;-83
2021/05/26 12:02:59;;;;;;;2.80;0.90;;;;;;;14.47;53.31;97685.47;8351808;28;20233;-83
2021/05/26 12:07:03;;;;;;;1.53;1.00;;;;;;;14.64;53.91;97688.75;8351287;28;20507;-83
2021/05/26 12:11:07;;;;;;;1.93;1.00;;;;;;;14.94;53.85;97688.50;8355769;28;20227;-82
2021/05/26 12:15:13;;;;;;;1.70;1.20;;;;;;;14.80;54.91;97686.81;8337051;28;20295;-82
2021/05/26 12:19:16;;;;;;;3.27;1.40;;;;;;;14.53;55.97;97686.84;8345838;28;20197;-83
2021/05/26 12:23:31;;;;;;;4.73;1.63;;;;;;;14.62;55.05;97685.41;8348982;28;20511;-82
2021/05/26 12:27:42;;;;;;;4.50;1.70;;;;;;;14.58;55.79;97669.16;8344741;28;20196;-82
2021/05/26 12:31:45;;;;;;;3.33;1.60;;;;;;;14.73;54.89;97671.69;8354565;28;20204;-82
2021/05/26 12:36:03;;;;;;;4.40;1.67;;;;;;;14.40;54.48;97652.91;8323796;28;20229;-82
2021/05/26 12:40:07;;;;;;;3.87;2.10;;;;;;;14.72;54.72;97665.66;8325472;28;20228;-81
2021/05/26 12:44:20;;;;;;;7.07;1.70;;;;;;;14.41;54.37;97661.56;8324784;28;20209;-82
2021/05/26 12:48:30;;;;;;;4.63;1.70;;;;;;;14.38;54.61;97657.38;8327251;28;20212;-82
2021/05/26 12:52:32;;;;;;;2.67;1.47;;;;;;;14.25;54.37;97656.50;8325646;28;20207;-81
2021/05/26 12:56:35;;;;;;;4.47;1.70;;;;;;;14.16;54.70;97662.28;8324775;28;20295;-81
2021/05/26 13:00:38;;;;;;;4.57;1.70;;;;;;;14.17;54.85;97659.59;8323911;28;20415;-82
2021/05/26 13:04:48;;;;;;;4.63;2.03;;;;;;;14.10;55.35;97660.91;8341601;28;20200;-82
2021/05/26 13:08:58;;;;;;;3.87;1.73;;;;;;;14.32;54.92;97649.97;8355132;28;20374;-82
2021/05/26 13:13:17;;;;;;;2.97;1.60;;;;;;;14.42;54.63;97650.22;8352082;28;20200;-82
2021/05/26 13:17:27;;;;;;;4.93;2.07;;;;;;;14.22;55.26;97651.47;8351771;28;20545;-83
2021/05/26 13:21:30;;;;;;;3.20;2.00;;;;;;;14.12;55.51;97659.06;8350912;28;20575;-82
2021/05/26 13:25:33;;;;;;;4.10;1.80;;;;;;;14.30;55.34;97649.25;8351656;28;20208;-82
2021/05/26 13:29:35;;;;;;;5.93;2.00;;;;;;;14.25;55.94;97652.13;8349283;28;20287;-83
2021/05/26 13:33:38;;;;;;;4.60;1.67;;;;;;;14.29;55.35;97647.56;8351262;28;20207;-82
2021/05/26 13:37:42;;;;;;;3.07;1.63;;;;;;;14.11;56.76;97651.34;8350167;28;20260;-83
2021/05/26 13:41:45;;;;;;;4.10;1.80;;;;;;;14.34;56.07;97645.50;8351131;28;20208;-82
2021/05/26 13:45:47;;;;;;;3.23;1.67;;;;;;;14.07;56.50;97642.91;8350874;28;20378;-81
2021/05/26 13:49:50;;;;;;;4.03;1.70;;;;;;;14.04;57.72;97640.50;8341751;28;20444;-83
2021/05/26 13:53:53;;;;;;;4.40;1.70;;;;;;;14.06;59.21;97644.66;8351084;28;20234;-82
2021/05/26 13:57:57;;;;;;;2.80;1.60;;;;;;;14.01;59.74;97643.28;8332338;28;20204;-82
2021/05/26 14:01:59;;;;;;;4.30;2.20;;;;;;;14.04;60.33;97632.69;8320457;28;20256;-81
2021/05/26 14:06:02;;;;;;;1.87;1.23;;;;;;;14.06;59.61;97634.25;8317788;28;20204;-82
2021/05/26 14:10:07;;;;;;;2.83;1.40;;;;;;;13.97;60.09;97639.19;8317707;28;20221;-82
2021/05/26 14:14:09;;;;;;;4.57;1.70;;;;;;;14.08;60.30;97628.94;8317304;28;20516;-81
2021/05/26 14:18:11;;;;;;;4.27;1.30;;;;;;;14.18;59.58;97618.75;8317245;28;20209;-82
2021/05/26 14:22:32;;;;;;;6.37;2.30;;;;;;;14.30;59.29;97607.56;8316961;28;20201;-81
2021/05/26 14:26:37;;;;;;;2.77;1.47;;;;;;;14.42;58.54;97611.97;8317094;28;20220;-81
2021/05/26 14:30:39;;;;;;;2.23;1.50;;;;;;;14.62;57.61;97602.88;8316859;28;20201;-81
2021/05/26 14:34:43;;;;;;;3.43;1.33;;;;;;;14.79;57.35;97599.16;8341183;28;20227;-81
2021/05/26 14:38:56;;;;;;;2.93;1.30;;;;;;;14.80;56.61;97603.41;8349590;28;20205;-80
2021/05/26 14:43:06;;;;;;;2.93;1.13;;;;;;;14.86;55.95;97592.56;8349342;28;20215;-81
2021/05/26 14:47:09;;;;;;;3.10;1.20;;;;;;;14.76;55.78;97593.31;8349314;28;20406;-81
2021/05/26 14:51:15;;;;;;;5.10;3.40;;;;;;;14.98;54.50;97584.84;8349207;28;20201;-80
2021/05/26 14:55:17;;;;;;;3.53;1.23;;;;;;;15.07;54.77;97586.00;8349333;28;20232;-80
2021/05/26 14:59:20;;;;;;;2.10;1.23;;;;;;;15.00;54.00;97580.34;8349242;28;20491;-81
2021/05/26 15:03:23;;;;;;;2.03;1.23;;;;;;;15.21;53.58;97578.91;8348694;28;20236;-81
2021/05/26 15:07:25;;;;;;;2.33;1.30;;;;;;;15.03;53.33;97570.56;8348682;28;20204;-81
2021/05/26 15:11:27;;;;;;;1.93;1.40;;;;;;;15.14;54.54;97582.03;8348542;28;20232;-81
2021/05/26 15:15:31;;;;;;;1.87;1.20;;;;;;;15.31;53.56;97562.59;8348552;28;20232;-80
2021/05/26 15:19:33;;;;;;;2.87;1.30;;;;;;;15.19;53.77;97564.28;8348860;28;20200;-80
2021/05/26 15:23:36;;;;;;;2.40;1.27;;;;;;;14.86;54.49;97565.66;8348524;28;20475;-81
2021/05/26 15:27:38;;;;;;;5.93;1.57;;;;;;;14.71;55.61;97569.31;8348453;28;20212;-80
2021/05/26 15:31:41;;;;;;;2.50;1.30;;;;;;;14.72;57.74;97566.59;8348254;28;20210;-80
2021/05/26 15:35:44;;;;;;;2.13;1.37;;;;;;;14.70;57.52;97584.13;8347793;28;20224;-80
2021/05/26 15:39:46;;;;;;;2.07;1.40;;;;;;;14.62;59.61;97586.38;8348121;28;20200;-81
2021/05/26 15:43:48;;;;;;;1.87;1.33;;;;;;;14.86;58.83;97570.88;8349227;28;20514;-82
2021/05/26 15:47:52;;;;;;;3.23;1.60;;;;;;;15.05;59.46;97581.72;8354883;28;20204;-81
2021/05/26 15:51:54;;;;;;;1.97;1.47;;;;;;;15.02;59.68;97571.50;8354450;28;20212;-81
2021/05/26 15:55:58;;;;;;;2.40;1.83;;;;;;;14.87;59.59;97567.34;8354506;28;20224;-81
2021/05/26 16:00:04;;;;;;;3.77;2.13;;;;;;;15.10;60.00;97567.50;8353344;28;20492;-81
2021/05/26 16:04:07;;;;;;;6.70;3.17;;;;;;;15.13;60.45;97567.31;8353121;28;20236;-82
2021/05/26 16:08:10;;;;;;;3.43;1.90;;;;;;;14.97;60.37;97563.16;8347463;28;20207;-82
2021/05/26 16:12:16;;;;;;;3.20;2.17;;;;;;;14.88;61.09;97555.13;8343809;28;20235;-82
2021/05/26 16:16:18;;;;;;;6.73;3.97;;;;;;;14.80;61.63;97561.69;8325288;28;20418;-80
2021/05/26 16:20:22;;;;;;;7.17;2.20;;;;;;;14.70;61.65;97550.25;8322642;28;20201;-81
2021/05/26 16:24:24;;;;;;;4.47;2.30;;;;;;;14.75;61.17;97552.53;8350027;28;20215;-81
2021/05/26 16:28:27;;;;;;;4.83;2.23;;;;;;;14.73;61.07;97550.00;8351193;28;20395;-81
2021/05/26 16:32:29;;;;;;;4.43;2.53;;;;;;;14.81;61.59;97547.75;8353173;28;20219;-81
2021/05/26 16:36:33;;;;;;;6.23;3.70;;;;;;;14.73;62.04;97544.81;8352993;28;20235;-82
2021/05/26 16:40:35;;;;;;;4.87;3.10;;;;;;;14.69;61.44;97545.13;8353025;28;20488;-82
2021/05/26 16:44:39;;;;;;;7.00;2.27;;;;;;;14.64;61.13;97546.28;8353335;28;20214;-81
2021/05/26 16:48:42;;;;;;;3.17;1.73;;;;;;;14.64;61.33;97550.63;8348335;28;20197;-81
2021/05/26 16:52:45;;;;;;;3.37;1.70;;;;;;;14.64;61.28;97550.63;8345150;28;20207;-81
2021/05/26 16:56:50;;;;;;;3.60;1.80;;;;;;;14.50;61.84;97558.53;8318632;28;20225;-81
2021/05/26 17:00:52;;;;;;;4.57;1.50;;;;;;;14.47;61.91;97556.97;8344631;28;20236;-81
2021/05/26 17:04:54;;;;;;;2.57;1.50;;;;;;;14.52;62.57;97554.03;8352301;28;20204;-82
2021/05/26 17:08:58;;;;;;;3.63;1.80;;;;;;;14.52;62.57;97559.25;8320099;28;20228;-82
2021/05/26 17:13:00;;;;;;;2.53;1.57;;;;;;;14.56;61.99;97558.94;8347464;28;20201;-81
2021/05/26 17:17:03;;;;;;;2.13;1.00;;;;;;;14.35;59.60;97560.38;8352604;28;20228;-81
2021/05/26 17:21:06;;;;;;;1.33;1.20;;;;;;;14.44;59.74;97563.19;8352286;28;20200;-79
2021/05/26 17:25:11;;;;;;;1.30;1.00;;;;;;;14.38;58.72;97568.00;8352095;28;20204;-80
2021/05/26 17:29:26;;;;;;;2.93;0.93;;;;;;;14.30;58.08;97575.47;8351585;28;20208;-81
2021/05/26 17:33:28;;;;;;;1.70;1.03;;;;;;;14.39;58.55;97570.50;8348195;28;20200;-82
2021/05/26 17:37:31;;;;;;;2.23;0.87;;;;;;;14.33;58.07;97578.69;8351341;28;20247;-82
2021/05/26 17:41:34;;;;;;;1.60;0.80;;;;;;;14.37;58.40;97587.97;8349828;28;20200;-82
2021/05/26 17:45:37;;;;;;;1.27;0.77;;;;;;;14.41;57.96;97576.44;8320205;28;20209;-83
2021/05/26 17:49:39;;;;;;;2.17;1.00;;;;;;;14.35;57.66;97583.81;8324345;28;20197;-82
2021/05/26 17:53:44;;;;;;;1.47;0.90;;;;;;;14.33;57.60;97583.91;8349619;28;20203;-82
2021/05/26 17:57:48;;;;;;;3.43;1.10;;;;;;;14.39;57.72;97590.47;8350975;28;20236;-82
2021/05/26 18:01:50;;;;;;;2.10;0.90;;;;;;;14.33;58.13;97596.09;8350302;28;20240;-82
2021/05/26 18:05:53;;;;;;;1.63;1.07;;;;;;;14.38;57.19;97589.66;8350264;28;20210;-83
2021/05/26 18:09:56;;;;;;;1.60;0.87;;;;;;;14.31;57.67;97604.00;8350182;28;20220;-83
2021/05/26 18:13:59;;;;;;;1.90;1.00;;;;;;;14.16;57.63;97610.22;8350170;28;20207;-82
2021/05/26 18:18:03;;;;;;;2.50;1.00;;;;;;;14.33;57.05;97609.13;8350160;28;20239;-82
2021/05/26 18:22:05;;;;;;;1.37;0.93;;;;;;;14.19;57.66;97618.66;8349267;28;20208;-82
2021/05/26 18:26:08;;;;;;;2.30;1.10;;;;;;;14.13;57.54;97632.09;8321181;28;20319;-83
2021/05/26 18:30:14;;;;;;;2.00;0.93;;;;;;;14.06;58.15;97636.00;8332280;28;20192;-83
2021/05/26 18:34:17;;;;;;;2.93;1.10;;;;;;;13.90;59.50;97649.19;8342522;28;20197;-83
2021/05/26 18:38:20;;;;;;;2.27;0.93;;;;;;;13.77;61.02;97654.31;8346456;28;20220;-83
2021/05/26 18:42:22;;;;;;;1.03;0.80;;;;;;;13.62;61.71;97650.06;8348948;28;20197;-83
2021/05/26 18:46:26;;;;;;;2.13;0.70;;;;;;;13.57;60.02;97657.28;8327990;28;20205;-83
2021/05/26 18:50:31;;;;;;;1.30;1.00;;;;;;;13.55;61.06;97683.41;8342899;28;20312;-84
2021/05/26 18:54:34;;;;;;;1.80;0.83;;;;;;;13.52;61.87;97691.41;8316899;28;20197;-85
2021/05/26 18:58:36;;;;;;;1.70;0.80;;;;;;;13.48;62.67;97695.13;8316564;28;20235;-85
2021/05/26 19:02:40;;;;;;;2.93;0.90;;;;;;;13.69;61.69;97708.59;8316941;28;20237;-84
2021/05/26 19:06:42;;;;;;;1.60;0.63;;;;;;;13.56;60.41;97718.09;8327158;28;20204;-84